Time;durP1;ratioP1;P1;durP2;ratioP2;P2;SDS_P1;SDS_P2;PMS_P1;PMS_P2;Temp;Humidity;BMP_temperature;BMP_pressure;BME280_temperature;BME280_humidity;BME280_pressure;Samples;Min_cycle;Max_cycle;Signal;HPM_P1;HPM_P2
2023/01/30 00:02:36;;;;;;;7.45;5.80;;;14.30;63.60;;;;;;10405010;28;20105;-59
2023/01/30 00:07:37;;;;;;;7.13;5.07;;;14.30;63.60;;;;;;10403713;28;20385;-60
2023/01/30 00:12:37;;;;;;;5.80;4.72;;;14.30;63.60;;;;;;10403608;28;20121;-60
2023/01/30 00:17:38;;;;;;;5.68;4.50;;;14.30;63.60;;;;;;10403396;28;20433;-57
2023/01/30 00:22:39;;;;;;;6.40;5.28;;;14.30;63.70;;;;;;10423389;28;20025;-59
2023/01/30 00:27:39;;;;;;;5.72;4.50;;;14.30;63.70;;;;;;10444443;28;20379;-58
2023/01/30 00:32:40;;;;;;;4.90;4.40;;;14.30;63.70;;;;;;10412188;28;20010;-58
2023/01/30 00:37:41;;;;;;;7.38;5.05;;;14.30;64.30;;;;;;10408999;28;20022;-59
2023/01/30 00:48:01;;;;;;;6.55;4.40;;;14.20;64.40;;;;;;10413315;28;20021;-59
2023/01/30 00:53:01;;;;;;;7.00;5.38;;;14.20;63.80;;;;;;10433544;28;20041;-58
2023/01/30 00:58:02;;;;;;;6.35;4.95;;;14.20;63.80;;;;;;10411984;28;20532;-59
2023/01/30 01:03:04;;;;;;;5.75;4.28;;;14.20;63.80;;;;;;10410804;28;20033;-58
2023/01/30 01:08:04;;;;;;;6.80;5.22;;;14.20;63.80;;;;;;10411987;28;20010;-59
2023/01/30 01:13:05;;;;;;;5.95;4.38;;;14.10;63.70;;;;;;10417541;28;20036;-56
2023/01/30 01:18:06;;;;;;;7.15;5.00;;;14.10;63.70;;;;;;10418760;28;20053;-59
2023/01/30 01:23:10;;;;;;;5.65;4.32;;;14.10;63.80;;;;;;10432479;28;20670;-59
2023/01/30 01:28:10;;;;;;;7.20;5.18;;;14.10;63.80;;;;;;10413773;28;20044;-57
2023/01/30 01:33:11;;;;;;;5.90;4.53;;;14.10;63.80;;;;;;10409551;28;20028;-60
2023/01/30 01:38:12;;;;;;;7.63;4.70;;;14.10;63.80;;;;;;10436797;28;20049;-59
2023/01/30 01:43:19;;;;;;;6.70;4.78;;;14.10;63.80;;;;;;10422434;28;20024;-59
2023/01/30 01:48:33;;;;;;;6.03;4.68;;;14.10;63.90;;;;;;10423696;28;20464;-60
2023/01/30 01:53:46;;;;;;;6.30;4.60;;;14.00;63.80;;;;;;10416626;28;20116;-59
2023/01/30 01:58:56;;;;;;;6.95;4.30;;;14.10;63.90;;;;;;10431624;28;20115;-59
2023/01/30 02:04:02;;;;;;;5.03;3.92;;;14.10;63.90;;;;;;10411885;28;20053;-59
2023/01/30 02:09:07;;;;;;;4.95;4.22;;;14.00;63.90;;;;;;10408066;28;20018;-59
2023/01/30 02:14:10;;;;;;;5.10;4.28;;;14.00;64.00;;;;;;10407769;28;20028;-59
2023/01/30 02:20:02;;;;;;;6.25;4.28;;;14.00;64.00;;;;;;10407736;28;20077;-59
2023/01/30 02:25:46;;;;;;;6.10;4.53;;;14.00;63.90;;;;;;10462305;28;20064;-59
2023/01/30 02:31:18;;;;;;;5.50;4.35;;;14.00;64.00;;;;;;10449737;28;20640;-58
2023/01/30 02:36:52;;;;;;;6.00;3.95;;;14.00;64.00;;;;;;10449603;28;20021;-59
2023/01/30 02:42:30;;;;;;;5.60;4.10;;;14.00;64.10;;;;;;10400182;28;20139;-60
2023/01/30 02:47:49;;;;;;;6.10;3.97;;;14.00;64.10;;;;;;10397895;28;20041;-59
2023/01/30 02:52:51;;;;;;;6.28;4.05;;;14.00;64.10;;;;;;10414448;28;20048;-60
2023/01/30 02:57:52;;;;;;;5.03;4.00;;;14.00;64.20;;;;;;10405908;28;20036;-58
2023/01/30 03:03:37;;;;;;;5.30;3.58;;;13.90;64.10;;;;;;10407042;28;20396;-59
2023/01/30 03:08:51;;;;;;;4.88;3.70;;;13.90;64.20;;;;;;10407736;28;20061;-60
2023/01/30 03:14:22;;;;;;;6.95;3.72;;;13.90;64.20;;;;;;10406755;28;20108;-56
2023/01/30 03:19:23;;;;;;;3.97;3.20;;;13.90;64.10;;;;;;10406548;28;20057;-59
2023/01/30 03:24:23;;;;;;;4.85;3.15;;;13.90;64.20;;;;;;10418773;28;20041;-60
2023/01/30 03:29:25;;;;;;;4.78;3.28;;;13.90;64.30;;;;;;10406090;28;20584;-59
2023/01/30 03:34:25;;;;;;;4.13;2.88;;;13.90;64.30;;;;;;10414785;28;20472;-60
2023/01/30 03:39:26;;;;;;;4.93;3.05;;;13.80;64.20;;;;;;10424074;28;20030;-59
2023/01/30 03:44:27;;;;;;;4.03;3.05;;;13.90;64.30;;;;;;10417057;28;20104;-57
2023/01/30 03:49:27;;;;;;;5.43;3.60;;;14.00;63.80;;;;;;10411866;28;20472;-58
2023/01/30 03:54:28;;;;;;;4.80;2.92;;;14.20;63.10;;;;;;10405677;28;20489;-56
2023/01/30 03:59:29;;;;;;;3.58;2.58;;;14.40;62.60;;;;;;10405206;28;20037;-59
2023/01/30 04:04:29;;;;;;;4.18;2.40;;;14.60;62.00;;;;;;10405422;28;20741;-59
2023/01/30 04:09:30;;;;;;;4.05;2.42;;;14.80;61.60;;;;;;10428768;28;20136;-60
2023/01/30 04:14:31;;;;;;;3.70;2.40;;;15.00;61.20;;;;;;10431360;28;20053;-58
2023/01/30 04:19:32;;;;;;;3.30;2.25;;;15.20;60.60;;;;;;10405040;28;20059;-59
2023/01/30 04:24:32;;;;;;;3.35;2.40;;;15.40;60.00;;;;;;10438978;28;20037;-58
2023/01/30 04:29:33;;;;;;;3.45;2.15;;;15.60;59.30;;;;;;10444912;28;20072;-59
2023/01/30 04:34:34;;;;;;;3.72;2.20;;;15.80;58.90;;;;;;10444441;28;20021;-62
2023/01/30 04:39:35;;;;;;;2.33;1.58;;;15.90;58.50;;;;;;10423530;28;20056;-59
2023/01/30 04:44:35;;;;;;;3.55;1.88;;;16.00;58.40;;;;;;10426335;28;20490;-58
2023/01/30 04:49:36;;;;;;;3.03;2.05;;;16.00;58.30;;;;;;10425868;28;20048;-59
2023/01/30 04:54:37;;;;;;;3.25;1.75;;;16.10;58.20;;;;;;10432207;28;20045;-59
2023/01/30 04:59:37;;;;;;;2.90;1.80;;;16.20;58.20;;;;;;10445288;28;20041;-57
2023/01/30 05:04:38;;;;;;;3.40;1.75;;;16.20;58.10;;;;;;10429084;28;20599;-56
2023/01/30 05:09:39;;;;;;;6.13;1.75;;;16.20;57.90;;;;;;10424662;28;20052;-59
2023/01/30 05:14:40;;;;;;;3.47;2.03;;;16.30;57.80;;;;;;10425474;28;20442;-57
2023/01/30 05:19:40;;;;;;;3.55;1.83;;;16.40;57.80;;;;;;10426380;28;20087;-60
2023/01/30 05:24:41;;;;;;;4.15;2.50;;;16.40;57.80;;;;;;10436682;28;20098;-57
2023/01/30 05:29:42;;;;;;;5.03;1.17;;;16.50;57.50;;;;;;10418555;28;20093;-59
2023/01/30 05:34:43;;;;;;;2.75;1.60;;;16.50;57.40;;;;;;10407130;28;20036;-60
2023/01/30 05:39:43;;;;;;;2.05;1.10;;;16.60;57.40;;;;;;10433128;28;20574;-59
2023/01/30 05:44:44;;;;;;;5.43;2.38;;;16.60;57.30;;;;;;10420184;28;20124;-59
2023/01/30 05:49:45;;;;;;;2.60;1.35;;;16.60;57.30;;;;;;10413353;28;20013;-58
2023/01/30 05:54:46;;;;;;;5.63;2.95;;;16.60;57.30;;;;;;10407056;28;20018;-61
2023/01/30 05:59:46;;;;;;;3.63;1.60;;;16.60;57.90;;;;;;10406084;28;20056;-60
2023/01/30 06:04:47;;;;;;;6.97;1.60;;;16.70;57.80;;;;;;10389645;28;20083;-60
2023/01/30 06:09:48;;;;;;;7.20;1.67;;;16.70;58.30;;;;;;10408443;28;20124;-60
2023/01/30 06:14:48;;;;;;;9.70;2.03;;;16.70;58.70;;;;;;10368724;28;1068045;-61
2023/01/30 06:19:50;;;;;;;4.38;2.65;;;16.80;59.10;;;;;;10408921;28;20155;-59
2023/01/30 06:24:50;;;;;;;5.70;2.03;;;16.80;59.60;;;;;;10430166;28;20068;-60
2023/01/30 06:29:51;;;;;;;5.25;2.17;;;16.80;59.80;;;;;;10404334;28;20109;-60
2023/01/30 06:34:51;;;;;;;6.53;2.28;;;16.90;60.00;;;;;;10402571;28;20025;-59
2023/01/30 06:39:52;;;;;;;9.25;1.90;;;16.80;60.20;;;;;;10412579;28;20082;-57
2023/01/30 06:44:53;;;;;;;4.82;1.70;;;16.80;59.40;;;;;;10413372;28;20531;-59
2023/01/30 06:49:53;;;;;;;5.45;1.92;;;16.90;59.30;;;;;;10421998;28;20104;-57
2023/01/30 06:54:54;;;;;;;4.35;1.40;;;16.90;59.40;;;;;;10443594;28;20050;-59
2023/01/30 06:59:55;;;;;;;8.32;1.52;;;16.90;59.20;;;;;;10447481;28;20108;-57
2023/01/30 07:04:55;;;;;;;15.40;2.38;;;16.90;59.30;;;;;;10439538;28;20114;-62
2023/01/30 07:09:57;;;;;;;9.05;2.08;;;16.90;59.40;;;;;;10442241;28;20112;-58
2023/01/30 07:14:58;;;;;;;6.05;1.75;;;16.90;59.90;;;;;;10454280;28;20053;-58
2023/01/30 07:19:58;;;;;;;4.68;1.77;;;16.90;58.90;;;;;;10444223;28;20115;-57
2023/01/30 07:24:59;;;;;;;9.45;1.98;;;16.90;58.60;;;;;;10417775;28;20052;-58
2023/01/30 07:30:00;;;;;;;9.88;2.08;;;16.90;58.70;;;;;;10440764;28;20365;-59
2023/01/30 07:35:00;;;;;;;10.93;2.45;;;17.10;58.30;;;;;;10442367;28;20179;-59
2023/01/30 07:40:01;;;;;;;9.52;2.35;;;17.10;58.40;;;;;;10423949;28;20028;-60
2023/01/30 07:45:02;;;;;;;7.57;1.95;;;17.10;58.30;;;;;;10458926;28;20051;-59
2023/01/30 07:50:03;;;;;;;7.05;1.80;;;17.10;58.60;;;;;;10439183;28;20163;-61
2023/01/30 07:55:05;;;;;;;13.63;1.88;;;17.10;59.00;;;;;;10431394;28;20529;-61
2023/01/30 08:00:08;;;;;;;10.68;2.10;;;16.90;59.30;;;;;;10429590;28;20657;-61
2023/01/30 08:05:09;;;;;;;15.20;2.70;;;16.80;59.80;;;;;;10445667;28;20028;-60
2023/01/30 08:10:10;;;;;;;14.18;2.30;;;16.70;60.70;;;;;;10442474;28;20143;-59
2023/01/30 08:15:11;;;;;;;11.75;2.30;;;16.60;61.00;;;;;;10443908;28;20041;-59
2023/01/30 08:20:15;;;;;;;11.68;2.38;;;16.60;60.80;;;;;;10437015;28;20498;-60
2023/01/30 08:25:15;;;;;;;17.13;3.75;;;16.60;60.60;;;;;;10444803;28;20086;-60
2023/01/30 08:30:18;;;;;;;15.75;2.67;;;16.60;61.00;;;;;;10441828;28;20521;-61
2023/01/30 08:35:19;;;;;;;11.65;2.63;;;16.60;61.70;;;;;;10427105;28;20033;-61
2023/01/30 08:40:20;;;;;;;10.43;2.25;;;16.50;61.60;;;;;;10456333;28;20028;-59
2023/01/30 08:45:20;;;;;;;9.65;2.20;;;16.40;62.10;;;;;;10444453;28;20112;-58
2023/01/30 08:50:21;;;;;;;13.45;2.80;;;16.30;61.70;;;;;;10439931;28;20056;-59
2023/01/30 08:55:22;;;;;;;12.13;2.72;;;16.30;62.30;;;;;;10444758;28;20112;-58
2023/01/30 09:00:23;;;;;;;19.95;3.92;;;16.40;62.60;;;;;;10451915;28;20017;-59
2023/01/30 09:05:24;;;;;;;9.60;1.85;;;16.30;62.70;;;;;;10451308;28;20037;-59
2023/01/30 09:10:24;;;;;;;7.80;2.30;;;16.30;62.10;;;;;;10450852;28;20069;-58
2023/01/30 09:15:25;;;;;;;7.15;1.73;;;16.20;62.20;;;;;;10450784;28;20599;-60
2023/01/30 09:20:26;;;;;;;7.13;2.25;;;16.10;62.30;;;;;;10442912;28;20518;-59
2023/01/30 09:25:27;;;;;;;11.98;1.75;;;16.00;62.90;;;;;;10444605;28;20087;-59
2023/01/30 09:30:27;;;;;;;8.93;2.42;;;16.00;62.00;;;;;;10443382;28;20635;-54
2023/01/30 09:35:28;;;;;;;7.18;1.95;;;15.90;62.00;;;;;;10451513;28;20017;-54
2023/01/30 09:40:33;;;;;;;8.05;1.98;;;15.90;61.80;;;;;;10450363;28;20364;-55
2023/01/30 09:45:57;;;;;;;5.93;2.30;;;15.90;61.60;;;;;;10443740;28;20587;-54
2023/01/30 09:51:09;;;;;;;6.18;1.55;;;16.00;61.20;;;;;;10437180;28;20456;-55
2023/01/30 09:56:10;;;;;;;13.98;5.32;;;16.10;60.80;;;;;;10444912;28;20017;-54
2023/01/30 10:01:29;;;;;;;6.15;1.83;;;16.00;60.70;;;;;;10444961;28;20052;-53
2023/01/30 10:06:35;;;;;;;6.60;2.25;;;16.10;60.50;;;;;;10457775;28;20491;-54
2023/01/30 10:12:14;;;;;;;5.75;1.88;;;16.00;60.50;;;;;;10434431;28;20563;-52
2023/01/30 10:17:27;;;;;;;8.98;2.55;;;16.10;60.30;;;;;;10444712;28;20057;-55
2023/01/30 10:23:01;;;;;;;8.70;1.90;;;16.00;60.60;;;;;;10440844;28;20021;-55
2023/01/30 10:28:29;;;;;;;10.48;1.95;;;16.00;60.50;;;;;;10438637;28;20037;-49
2023/01/30 10:33:43;;;;;;;5.28;1.60;;;16.00;60.40;;;;;;10439263;28;20381;-49
2023/01/30 10:38:50;;;;;;;12.02;2.15;;;16.00;60.60;;;;;;10443506;28;20104;-52
2023/01/30 10:44:04;;;;;;;19.88;3.17;;;16.00;60.80;;;;;;10427022;28;20033;-47
2023/01/30 10:49:14;;;;;;;9.07;2.53;;;16.10;61.20;;;;;;10410581;28;20021;-48
2023/01/30 10:54:38;;;;;;;14.82;2.33;;;16.10;61.50;;;;;;10446174;28;20024;-46
2023/01/30 10:59:58;;;;;;;6.32;2.30;;;16.10;61.80;;;;;;10434222;28;20071;-48
2023/01/30 11:05:12;;;;;;;11.15;2.50;;;16.10;61.90;;;;;;10421132;28;20029;-54
2023/01/30 11:10:24;;;;;;;9.82;1.92;;;16.10;62.00;;;;;;10447705;28;20017;-53
2023/01/30 11:15:43;;;;;;;22.20;3.55;;;16.10;61.70;;;;;;10448097;28;20045;-51
2023/01/30 11:21:00;;;;;;;11.38;2.08;;;16.10;61.30;;;;;;10446187;28;20032;-48
2023/01/30 11:26:02;;;;;;;12.63;2.80;;;16.00;61.00;;;;;;10443082;28;20186;-47
2023/01/30 11:31:03;;;;;;;10.05;1.63;;;16.00;61.30;;;;;;10429506;28;20029;-47
2023/01/30 11:36:25;;;;;;;12.27;2.83;;;16.00;60.70;;;;;;10444318;28;20528;-47
2023/01/30 11:41:27;;;;;;;8.20;1.85;;;15.80;61.00;;;;;;10425056;28;20037;-51
2023/01/30 11:46:33;;;;;;;8.18;2.70;;;15.80;61.30;;;;;;10417384;28;20033;-47
2023/01/30 11:51:35;;;;;;;8.00;2.28;;;15.80;61.90;;;;;;10410578;28;20045;-63
2023/01/30 11:56:52;;;;;;;14.65;3.78;;;15.70;62.00;;;;;;10415334;28;20025;-61
2023/01/30 12:02:31;;;;;;;12.80;2.13;;;15.60;62.00;;;;;;10425824;28;20052;-60
2023/01/30 12:07:36;;;;;;;13.63;4.05;;;15.60;62.70;;;;;;10429984;28;20068;-62
2023/01/30 12:12:44;;;;;;;6.47;2.33;;;15.70;62.90;;;;;;10414707;28;20032;-60
2023/01/30 12:17:57;;;;;;;9.23;2.20;;;15.80;62.80;;;;;;10414991;28;20115;-60
2023/01/30 12:23:18;;;;;;;15.02;4.07;;;15.80;62.70;;;;;;10409540;28;20381;-60
2023/01/30 12:28:34;;;;;;;16.08;3.30;;;15.70;62.50;;;;;;10397035;28;20028;-60
2023/01/30 12:33:35;;;;;;;11.02;2.55;;;15.50;62.60;;;;;;10416508;28;20053;-61
2023/01/30 12:39:03;;;;;;;16.58;2.90;;;15.50;62.90;;;;;;10425651;28;20021;-60
2023/01/30 12:44:42;;;;;;;6.93;2.10;;;15.50;62.80;;;;;;10446970;28;20044;-61
2023/01/30 12:50:13;;;;;;;15.30;3.35;;;15.50;62.30;;;;;;10432960;28;20096;-61
2023/01/30 12:55:45;;;;;;;10.25;2.55;;;15.50;63.10;;;;;;10429220;28;20024;-60
2023/01/30 13:01:07;;;;;;;9.68;2.47;;;15.50;63.00;;;;;;10440110;28;20489;-59
2023/01/30 13:06:49;;;;;;;7.65;2.08;;;15.60;62.70;;;;;;10420961;28;20112;-59
2023/01/30 13:12:15;;;;;;;5.25;1.48;;;15.70;62.60;;;;;;10408041;28;20017;-59
2023/01/30 13:17:58;;;;;;;10.73;2.28;;;15.70;62.50;;;;;;10421833;28;20061;-60
2023/01/30 13:23:09;;;;;;;10.65;2.50;;;15.80;62.00;;;;;;10416786;28;20021;-60
2023/01/30 13:28:17;;;;;;;9.30;1.98;;;15.80;62.70;;;;;;10452564;28;20027;-60
2023/01/30 13:33:32;;;;;;;9.65;1.75;;;15.90;62.60;;;;;;10450739;28;20484;-60
2023/01/30 13:38:38;;;;;;;9.55;2.50;;;15.90;62.70;;;;;;10450837;28;20017;-60
2023/01/30 13:43:46;;;;;;;4.75;1.42;;;16.00;62.70;;;;;;10445930;28;20028;-60
2023/01/30 13:49:02;;;;;;;6.57;1.98;;;16.00;63.00;;;;;;10409802;28;20025;-60
2023/01/30 13:54:21;;;;;;;4.45;1.40;;;16.00;63.30;;;;;;10414924;28;20057;-60
2023/01/30 14:00:01;;;;;;;7.43;1.60;;;16.10;62.90;;;;;;10410202;28;20030;-60
2023/01/30 14:05:04;;;;;;;;;;;16.00;62.70;;;;;;10422146;28;20033;-59
2023/01/30 14:10:08;;;;;;;11.15;2.00;;;16.00;63.70;;;;;;10406830;28;19950;-59
2023/01/30 14:15:17;;;;;;;6.57;1.50;;;16.00;63.70;;;;;;10407312;28;20551;-58
2023/01/30 14:20:20;;;;;;;6.75;1.50;;;16.20;63.70;;;;;;10413686;28;20714;-60
2023/01/30 14:25:27;;;;;;;5.93;1.40;;;16.20;63.60;;;;;;10418449;28;20315;-60
2023/01/30 14:30:30;;;;;;;5.72;1.33;;;16.10;63.90;;;;;;10444050;28;20071;-60
2023/01/30 14:35:32;;;;;;;7.93;2.40;;;16.10;64.10;;;;;;10427158;28;20033;-59
2023/01/30 14:40:39;;;;;;;7.78;1.88;;;16.00;64.30;;;;;;10433451;28;20082;-59
2023/01/30 14:45:57;;;;;;;9.35;1.38;;;16.00;64.00;;;;;;10455922;28;20451;-59
2023/01/30 14:51:41;;;;;;;8.60;1.55;;;15.90;64.30;;;;;;10439212;28;20452;-58
2023/01/30 14:56:59;;;;;;;8.43;1.60;;;15.90;64.50;;;;;;10420882;28;20029;-59
2023/01/30 15:02:12;;;;;;;5.95;1.00;;;15.90;64.30;;;;;;10413701;28;20032;-58
2023/01/30 15:07:25;;;;;;;9.45;1.88;;;15.90;64.30;;;;;;10463882;28;20518;-56
2023/01/30 15:12:40;;;;;;;13.38;1.95;;;15.90;64.10;;;;;;10446835;28;20338;-57
2023/01/30 15:17:51;;;;;;;8.15;2.15;;;15.80;64.30;;;;;;10447871;28;20044;-56
2023/01/30 15:23:37;;;;;;;6.45;1.50;;;15.90;64.10;;;;;;10446350;28;20499;-59
2023/01/30 15:29:17;;;;;;;12.80;1.80;;;15.90;63.60;;;;;;10444936;28;20025;-60
2023/01/30 15:34:19;;;;;;;8.57;1.30;;;15.90;63.50;;;;;;10445238;28;20688;-59
2023/01/30 15:39:27;;;;;;;16.75;2.75;;;15.90;63.70;;;;;;10445011;28;20013;-53
2023/01/30 15:44:30;;;;;;;11.23;2.22;;;15.80;63.90;;;;;;10444761;28;20043;-48
2023/01/30 15:49:56;;;;;;;14.88;2.10;;;15.80;64.00;;;;;;10453301;28;20025;-51
2023/01/30 15:55:00;;;;;;;7.63;2.08;;;15.80;64.50;;;;;;10433313;28;20055;-53
2023/01/30 16:00:07;;;;;;;14.73;2.00;;;15.80;64.20;;;;;;10443682;28;20357;-53
2023/01/30 16:05:20;;;;;;;12.23;1.95;;;15.90;63.90;;;;;;10442540;28;20037;-51
2023/01/30 16:10:28;;;;;;;7.25;1.45;;;15.90;63.50;;;;;;10444322;28;20021;-53
2023/01/30 16:15:37;;;;;;;5.32;1.80;;;16.00;62.80;;;;;;10442753;28;20120;-49
2023/01/30 16:20:56;;;;;;;12.05;2.50;;;16.20;61.90;;;;;;10438969;28;20017;-53
2023/01/30 16:25:58;;;;;;;3.80;1.83;;;16.10;62.30;;;;;;10426739;28;20029;-53
2023/01/30 16:31:06;;;;;;;9.23;1.95;;;16.20;61.60;;;;;;10428927;28;20614;-53
2023/01/30 16:36:28;;;;;;;7.25;1.98;;;16.30;60.90;;;;;;10435061;28;20029;-52
2023/01/30 16:41:38;;;;;;;6.72;2.47;;;16.40;60.40;;;;;;10407802;28;20476;-52
2023/01/30 16:46:47;;;;;;;14.38;2.58;;;16.40;61.90;;;;;;10401711;28;20033;-51
2023/01/30 16:51:57;;;;;;;11.15;2.83;;;16.40;61.90;;;;;;10408800;28;20047;-53
2023/01/30 16:56:59;;;;;;;;;;;16.50;61.60;;;;;;10403390;28;20028;-54
2023/01/30 17:02:04;;;;;;;16.83;2.88;;;16.50;63.10;;;;;;10402941;28;19908;-54
2023/01/30 17:07:05;;;;;;;11.63;2.60;;;16.50;63.40;;;;;;10399260;28;20099;-53
2023/01/30 17:12:25;;;;;;;10.60;2.97;;;16.40;63.50;;;;;;10400596;28;20044;-51
2023/01/30 17:17:26;;;;;;;14.63;2.80;;;16.40;63.40;;;;;;10401216;28;20111;-54
2023/01/30 17:22:27;;;;;;;12.00;3.15;;;16.30;63.90;;;;;;10424418;28;20110;-53
2023/01/30 17:27:29;;;;;;;8.93;2.25;;;16.20;63.50;;;;;;10447352;28;20677;-52
2023/01/30 17:32:30;;;;;;;10.27;2.25;;;16.10;63.60;;;;;;10447340;28;20013;-53
2023/01/30 17:37:31;;;;;;;11.85;2.20;;;16.00;64.40;;;;;;10447290;28;20053;-53
2023/01/30 17:42:31;;;;;;;13.73;2.78;;;15.90;63.70;;;;;;10447116;28;20029;-51
2023/01/30 17:47:32;;;;;;;7.30;2.03;;;15.90;63.80;;;;;;10411964;28;20441;-52
2023/01/30 17:52:32;;;;;;;6.85;2.58;;;15.90;63.70;;;;;;10414380;28;20516;-52
2023/01/30 17:57:33;;;;;;;8.65;1.52;;;15.90;63.70;;;;;;10406410;28;20057;-53
2023/01/30 18:02:34;;;;;;;7.95;1.90;;;15.90;63.70;;;;;;10406453;28;20100;-53
2023/01/30 18:07:35;;;;;;;3.90;1.63;;;16.00;63.60;;;;;;10406209;28;20502;-52
2023/01/30 18:12:36;;;;;;;4.60;1.42;;;15.90;63.80;;;;;;10405198;28;20128;-53
2023/01/30 18:17:43;;;;;;;6.72;1.90;;;15.90;63.80;;;;;;10406530;28;20652;-53
2023/01/30 18:22:45;;;;;;;8.57;2.40;;;15.90;63.90;;;;;;10421561;28;20131;-52
2023/01/30 18:27:46;;;;;;;6.03;1.67;;;16.00;63.80;;;;;;10407873;28;20052;-53
2023/01/30 18:32:47;;;;;;;10.05;1.80;;;16.00;63.60;;;;;;10407463;28;20024;-52
2023/01/30 18:37:49;;;;;;;4.93;1.55;;;16.00;63.50;;;;;;10406971;28;20032;-52
2023/01/30 18:42:49;;;;;;;9.88;1.85;;;16.00;63.30;;;;;;10413644;28;20017;-53
2023/01/30 18:47:51;;;;;;;7.22;1.73;;;16.00;63.10;;;;;;10407492;28;20075;-53
2023/01/30 18:52:51;;;;;;;8.00;2.20;;;16.00;63.30;;;;;;10421995;28;20030;-54
2023/01/30 18:57:52;;;;;;;5.57;1.40;;;16.00;63.10;;;;;;10440743;28;20831;-53
2023/01/30 19:02:53;;;;;;;7.28;1.50;;;16.00;63.10;;;;;;10447733;28;20060;-54
2023/01/30 19:07:54;;;;;;;5.00;1.38;;;16.10;63.00;;;;;;10442550;28;20120;-54
2023/01/30 19:18:14;;;;;;;3.90;1.17;;;16.10;62.80;;;;;;10430400;28;20095;-51
2023/01/30 19:23:14;;;;;;;4.93;1.50;;;16.10;62.90;;;;;;10432403;28;20032;-55
2023/01/30 19:28:15;;;;;;;9.10;1.63;;;16.10;62.80;;;;;;10427965;28;20606;-55
2023/01/30 19:33:16;;;;;;;7.00;2.00;;;16.00;63.00;;;;;;10429041;28;20063;-56
2023/01/30 19:38:16;;;;;;;2.35;1.13;;;16.00;62.90;;;;;;10424803;28;20019;-56
2023/01/30 19:43:17;;;;;;;3.55;1.10;;;16.00;62.70;;;;;;10424999;28;20100;-56
2023/01/30 19:48:18;;;;;;;3.88;1.13;;;16.10;62.60;;;;;;10399687;28;20447;-57
2023/01/30 19:53:18;;;;;;;3.60;1.45;;;16.10;62.40;;;;;;10429283;28;20487;-53
2023/01/30 19:58:19;;;;;;;6.00;1.13;;;16.10;62.40;;;;;;10426721;28;20631;-56
2023/01/30 20:03:20;;;;;;;4.00;1.00;;;16.10;62.30;;;;;;10416680;28;20022;-56
2023/01/30 20:08:21;;;;;;;5.22;1.05;;;16.10;62.30;;;;;;10422659;28;20436;-56
2023/01/30 20:13:22;;;;;;;7.68;0.98;;;16.10;62.30;;;;;;10436830;28;20372;-55
2023/01/30 20:18:22;;;;;;;3.88;1.38;;;16.10;62.40;;;;;;10406798;28;20133;-55
2023/01/30 20:23:23;;;;;;;5.30;0.80;;;16.00;62.50;;;;;;10423180;28;20025;-55
2023/01/30 20:28:24;;;;;;;3.75;1.20;;;16.10;62.50;;;;;;10420455;28;20022;-57
2023/01/30 20:33:25;;;;;;;6.63;3.38;;;16.10;62.40;;;;;;10403304;28;20112;-57
2023/01/30 20:38:33;;;;;;;3.15;1.33;;;16.00;62.60;;;;;;10434739;28;20039;-56
2023/01/30 20:43:36;;;;;;;4.30;1.40;;;15.90;62.80;;;;;;10432134;28;20630;-57
2023/01/30 20:48:37;;;;;;;7.30;1.17;;;15.80;63.20;;;;;;10426490;28;20029;-54
2023/01/30 20:53:44;;;;;;;5.43;0.98;;;15.80;63.30;;;;;;10416527;28;20029;-48
2023/01/30 20:58:45;;;;;;;3.63;1.02;;;15.70;63.50;;;;;;10438119;28;20079;-55
2023/01/30 21:03:49;;;;;;;10.65;1.02;;;15.70;63.30;;;;;;10436203;28;20029;-56
2023/01/30 21:08:50;;;;;;;5.25;0.82;;;15.60;64.00;;;;;;10425441;28;20021;-53
2023/01/30 21:13:50;;;;;;;5.18;1.48;;;15.60;64.30;;;;;;10407141;28;20025;-55
2023/01/30 21:18:58;;;;;;;5.65;1.13;;;15.70;64.30;;;;;;10407636;28;20044;-55
2023/01/30 21:24:03;;;;;;;4.80;1.55;;;15.60;64.60;;;;;;10435940;28;20060;-55
2023/01/30 21:29:07;;;;;;;4.90;1.90;;;15.60;64.30;;;;;;10441046;28;20393;-56
2023/01/30 21:34:09;;;;;;;3.78;1.23;;;15.50;64.40;;;;;;10436605;28;20016;-55
2023/01/30 21:44:37;;;;;;;3.67;0.80;;;15.40;64.60;;;;;;10437263;28;20452;-55
2023/01/30 21:49:39;;;;;;;3.20;1.52;;;15.30;64.60;;;;;;10414374;28;20020;-55
2023/01/30 21:54:40;;;;;;;4.30;0.80;;;15.20;64.70;;;;;;10408067;28;20150;-55
2023/01/30 21:59:40;;;;;;;7.53;1.48;;;15.20;64.70;;;;;;10410108;28;20125;-55
2023/01/30 22:04:41;;;;;;;4.80;1.30;;;15.20;64.70;;;;;;10409623;28;20033;-55
2023/01/30 22:09:42;;;;;;;4.55;1.20;;;15.10;64.80;;;;;;10408344;28;20056;-56
2023/01/30 22:14:42;;;;;;;4.30;2.22;;;15.10;64.70;;;;;;10435416;28;20101;-55
2023/01/30 22:19:43;;;;;;;3.28;0.80;;;15.00;64.70;;;;;;10407990;28;20083;-54
2023/01/30 22:24:44;;;;;;;3.28;1.25;;;15.00;64.80;;;;;;10435436;28;20057;-56
2023/01/30 22:29:44;;;;;;;2.88;0.93;;;15.00;64.80;;;;;;10408788;28;20024;-55
2023/01/30 22:34:45;;;;;;;4.32;1.17;;;15.00;64.80;;;;;;10408726;28;20062;-56
2023/01/30 22:39:46;;;;;;;4.38;1.65;;;14.90;64.70;;;;;;10435484;28;20447;-55
2023/01/30 22:44:46;;;;;;;1.75;0.75;;;14.90;64.90;;;;;;10434502;28;20534;-55
2023/01/30 22:49:47;;;;;;;3.28;1.10;;;14.80;64.90;;;;;;10440959;28;20048;-54
2023/01/30 22:54:48;;;;;;;7.70;1.73;;;14.80;65.00;;;;;;10419970;28;20133;-54
2023/01/30 22:59:50;;;;;;;2.20;1.42;;;14.80;65.10;;;;;;10406253;28;20123;-55
2023/01/30 23:04:51;;;;;;;2.08;0.73;;;14.70;65.00;;;;;;10406074;28;20090;-55
2023/01/30 23:09:52;;;;;;;3.97;0.90;;;14.70;65.00;;;;;;10407382;28;20111;-55
2023/01/30 23:14:52;;;;;;;2.90;0.73;;;14.70;65.00;;;;;;10406751;28;20134;-56
2023/01/30 23:19:53;;;;;;;3.05;0.88;;;14.70;65.10;;;;;;10405805;28;20143;-55
2023/01/30 23:24:54;;;;;;;1.80;0.77;;;14.70;65.20;;;;;;10442236;28;20036;-55
2023/01/30 23:29:55;;;;;;;2.22;0.88;;;14.70;65.10;;;;;;10447727;28;20598;-56
2023/01/30 23:34:55;;;;;;;2.63;0.88;;;14.70;65.10;;;;;;10390387;28;20124;-55
2023/01/30 23:39:56;;;;;;;3.17;1.00;;;14.60;65.10;;;;;;10406346;28;20109;-56
2023/01/30 23:44:57;;;;;;;3.75;1.40;;;14.60;65.10;;;;;;10418606;28;20478;-56
2023/01/30 23:49:57;;;;;;;3.17;1.08;;;14.60;65.10;;;;;;10428697;28;20048;-56
2023/01/30 23:54:58;;;;;;;3.20;0.90;;;14.60;65.20;;;;;;10404451;28;20063;-56
2023/01/30 23:59:58;;;;;;;1.73;0.70;;;14.50;65.10;;;;;;10405495;28;20076;-56
